sensor_id;sensor_type;location;lat;lon;timestamp;P1;durP1;ratioP1;P2;durP2;ratioP2
15699;SDS011;7950;42.744;23.174;2022-10-16T00:01:10;7.93;;;5.17;;
15699;SDS011;7950;42.744;23.174;2022-10-16T00:03:41;7.63;;;5.30;;
15699;SDS011;7950;42.744;23.174;2022-10-16T00:06:12;5.93;;;5.33;;
15699;SDS011;7950;42.744;23.174;2022-10-16T00:08:42;6.03;;;4.83;;
15699;SDS011;7950;42.744;23.174;2022-10-16T00:11:12;7.20;;;5.03;;
15699;SDS011;7950;42.744;23.174;2022-10-16T00:13:43;6.40;;;5.30;;
15699;SDS011;7950;42.744;23.174;2022-10-16T00:16:14;7.37;;;4.70;;
15699;SDS011;7950;42.744;23.174;2022-10-16T00:18:43;5.97;;;4.30;;
15699;SDS011;7950;42.744;23.174;2022-10-16T00:21:13;6.07;;;4.70;;
15699;SDS011;7950;42.744;23.174;2022-10-16T00:23:43;6.63;;;5.23;;
15699;SDS011;7950;42.744;23.174;2022-10-16T00:26:13;6.63;;;5.20;;
15699;SDS011;7950;42.744;23.174;2022-10-16T00:28:44;8.57;;;4.83;;
15699;SDS011;7950;42.744;23.174;2022-10-16T00:31:19;7.07;;;4.93;;
15699;SDS011;7950;42.744;23.174;2022-10-16T00:34:03;7.40;;;5.20;;
15699;SDS011;7950;42.744;23.174;2022-10-16T00:36:32;6.40;;;4.77;;
15699;SDS011;7950;42.744;23.174;2022-10-16T00:39:00;6.17;;;4.93;;
15699;SDS011;7950;42.744;23.174;2022-10-16T00:41:29;5.73;;;5.13;;
15699;SDS011;7950;42.744;23.174;2022-10-16T00:43:59;6.00;;;5.40;;
15699;SDS011;7950;42.744;23.174;2022-10-16T00:46:31;6.47;;;5.00;;
15699;SDS011;7950;42.744;23.174;2022-10-16T00:49:11;8.37;;;4.83;;
15699;SDS011;7950;42.744;23.174;2022-10-16T00:51:43;5.57;;;5.07;;
15699;SDS011;7950;42.744;23.174;2022-10-16T00:54:15;6.20;;;4.93;;
15699;SDS011;7950;42.744;23.174;2022-10-16T00:56:47;5.13;;;4.63;;
15699;SDS011;7950;42.744;23.174;2022-10-16T00:59:18;5.90;;;4.37;;
15699;SDS011;7950;42.744;23.174;2022-10-16T01:01:52;6.47;;;5.07;;
15699;SDS011;7950;42.744;23.174;2022-10-16T01:04:22;6.23;;;5.03;;
15699;SDS011;7950;42.744;23.174;2022-10-16T01:06:54;7.13;;;4.60;;
15699;SDS011;7950;42.744;23.174;2022-10-16T01:09:29;5.90;;;4.83;;
15699;SDS011;7950;42.744;23.174;2022-10-16T01:12:05;6.20;;;4.83;;
15699;SDS011;7950;42.744;23.174;2022-10-16T01:14:40;7.13;;;5.13;;
15699;SDS011;7950;42.744;23.174;2022-10-16T01:17:16;6.53;;;4.60;;
15699;SDS011;7950;42.744;23.174;2022-10-16T01:19:54;5.53;;;5.03;;
15699;SDS011;7950;42.744;23.174;2022-10-16T01:22:33;6.77;;;5.30;;
15699;SDS011;7950;42.744;23.174;2022-10-16T01:25:12;6.63;;;5.40;;
15699;SDS011;7950;42.744;23.174;2022-10-16T01:27:47;5.67;;;4.93;;
15699;SDS011;7950;42.744;23.174;2022-10-16T01:30:18;5.00;;;4.50;;
15699;SDS011;7950;42.744;23.174;2022-10-16T01:32:50;6.47;;;5.37;;
15699;SDS011;7950;42.744;23.174;2022-10-16T01:35:25;5.47;;;4.80;;
15699;SDS011;7950;42.744;23.174;2022-10-16T01:37:58;5.67;;;4.40;;
15699;SDS011;7950;42.744;23.174;2022-10-16T01:40:31;5.83;;;4.97;;
15699;SDS011;7950;42.744;23.174;2022-10-16T01:43:05;6.53;;;4.80;;
15699;SDS011;7950;42.744;23.174;2022-10-16T01:45:38;5.60;;;4.40;;
15699;SDS011;7950;42.744;23.174;2022-10-16T01:48:09;7.10;;;5.20;;
15699;SDS011;7950;42.744;23.174;2022-10-16T01:50:41;6.93;;;5.17;;
15699;SDS011;7950;42.744;23.174;2022-10-16T01:53:12;4.97;;;4.43;;
15699;SDS011;7950;42.744;23.174;2022-10-16T01:55:43;6.07;;;4.80;;
15699;SDS011;7950;42.744;23.174;2022-10-16T01:58:16;5.67;;;4.63;;
15699;SDS011;7950;42.744;23.174;2022-10-16T02:00:45;8.53;;;4.90;;
15699;SDS011;7950;42.744;23.174;2022-10-16T02:03:16;8.23;;;4.83;;
15699;SDS011;7950;42.744;23.174;2022-10-16T02:05:49;5.67;;;4.63;;
15699;SDS011;7950;42.744;23.174;2022-10-16T02:08:20;11.33;;;5.80;;
15699;SDS011;7950;42.744;23.174;2022-10-16T02:10:52;8.37;;;5.33;;
15699;SDS011;7950;42.744;23.174;2022-10-16T02:13:26;7.83;;;4.97;;
15699;SDS011;7950;42.744;23.174;2022-10-16T02:15:58;7.07;;;4.93;;
15699;SDS011;7950;42.744;23.174;2022-10-16T02:18:26;6.90;;;5.70;;
15699;SDS011;7950;42.744;23.174;2022-10-16T02:20:58;5.97;;;5.37;;
15699;SDS011;7950;42.744;23.174;2022-10-16T02:23:33;10.47;;;5.70;;
15699;SDS011;7950;42.744;23.174;2022-10-16T02:26:07;5.27;;;4.50;;
15699;SDS011;7950;42.744;23.174;2022-10-16T02:28:42;6.67;;;5.37;;
15699;SDS011;7950;42.744;23.174;2022-10-16T02:31:16;7.23;;;5.40;;
15699;SDS011;7950;42.744;23.174;2022-10-16T02:33:50;6.00;;;4.80;;
15699;SDS011;7950;42.744;23.174;2022-10-16T02:36:20;5.80;;;4.80;;
15699;SDS011;7950;42.744;23.174;2022-10-16T02:38:50;6.33;;;4.80;;
15699;SDS011;7950;42.744;23.174;2022-10-16T02:41:20;5.27;;;4.77;;
15699;SDS011;7950;42.744;23.174;2022-10-16T02:43:51;9.70;;;5.60;;
15699;SDS011;7950;42.744;23.174;2022-10-16T02:46:21;6.03;;;5.10;;
15699;SDS011;7950;42.744;23.174;2022-10-16T02:48:50;6.10;;;5.23;;
15699;SDS011;7950;42.744;23.174;2022-10-16T02:51:19;6.53;;;5.47;;
15699;SDS011;7950;42.744;23.174;2022-10-16T02:53:47;5.90;;;5.13;;
15699;SDS011;7950;42.744;23.174;2022-10-16T02:56:16;6.80;;;5.20;;
15699;SDS011;7950;42.744;23.174;2022-10-16T02:58:51;4.87;;;4.37;;
15699;SDS011;7950;42.744;23.174;2022-10-16T03:01:20;5.67;;;5.00;;
15699;SDS011;7950;42.744;23.174;2022-10-16T03:04:05;6.30;;;4.97;;
15699;SDS011;7950;42.744;23.174;2022-10-16T03:06:34;5.60;;;4.97;;
15699;SDS011;7950;42.744;23.174;2022-10-16T03:09:02;5.23;;;4.73;;
15699;SDS011;7950;42.744;23.174;2022-10-16T03:11:31;6.27;;;5.00;;
15699;SDS011;7950;42.744;23.174;2022-10-16T03:14:01;6.73;;;4.77;;
15699;SDS011;7950;42.744;23.174;2022-10-16T03:16:30;7.67;;;4.93;;
15699;SDS011;7950;42.744;23.174;2022-10-16T03:18:58;5.43;;;4.93;;
15699;SDS011;7950;42.744;23.174;2022-10-16T03:21:27;6.27;;;5.47;;
15699;SDS011;7950;42.744;23.174;2022-10-16T03:23:56;6.03;;;5.43;;
15699;SDS011;7950;42.744;23.174;2022-10-16T03:26:25;6.03;;;4.70;;
15699;SDS011;7950;42.744;23.174;2022-10-16T03:28:53;4.73;;;4.20;;
15699;SDS011;7950;42.744;23.174;2022-10-16T03:31:24;5.23;;;4.73;;
15699;SDS011;7950;42.744;23.174;2022-10-16T03:33:52;6.37;;;5.00;;
15699;SDS011;7950;42.744;23.174;2022-10-16T03:39:15;6.77;;;5.00;;
15699;SDS011;7950;42.744;23.174;2022-10-16T03:41:44;6.03;;;4.60;;
15699;SDS011;7950;42.744;23.174;2022-10-16T03:44:14;5.77;;;5.17;;
15699;SDS011;7950;42.744;23.174;2022-10-16T03:46:44;7.67;;;4.90;;
15699;SDS011;7950;42.744;23.174;2022-10-16T03:49:13;8.97;;;5.27;;
15699;SDS011;7950;42.744;23.174;2022-10-16T03:51:41;7.83;;;5.17;;
15699;SDS011;7950;42.744;23.174;2022-10-16T03:54:10;5.77;;;4.67;;
15699;SDS011;7950;42.744;23.174;2022-10-16T03:56:52;7.43;;;4.83;;
15699;SDS011;7950;42.744;23.174;2022-10-16T03:59:21;6.90;;;5.27;;
15699;SDS011;7950;42.744;23.174;2022-10-16T04:01:51;7.30;;;5.13;;
15699;SDS011;7950;42.744;23.174;2022-10-16T04:04:20;8.53;;;5.47;;
15699;SDS011;7950;42.744;23.174;2022-10-16T04:06:48;8.87;;;5.80;;
15699;SDS011;7950;42.744;23.174;2022-10-16T04:09:17;8.00;;;5.93;;
15699;SDS011;7950;42.744;23.174;2022-10-16T04:11:46;8.37;;;5.60;;
15699;SDS011;7950;42.744;23.174;2022-10-16T04:14:15;7.17;;;5.50;;
15699;SDS011;7950;42.744;23.174;2022-10-16T04:16:43;8.37;;;5.70;;
15699;SDS011;7950;42.744;23.174;2022-10-16T04:19:16;6.53;;;4.93;;
15699;SDS011;7950;42.744;23.174;2022-10-16T04:21:58;7.27;;;5.33;;
15699;SDS011;7950;42.744;23.174;2022-10-16T04:24:26;8.60;;;5.23;;
15699;SDS011;7950;42.744;23.174;2022-10-16T04:26:55;9.20;;;5.67;;
15699;SDS011;7950;42.744;23.174;2022-10-16T04:29:24;7.30;;;6.10;;
15699;SDS011;7950;42.744;23.174;2022-10-16T04:31:53;6.67;;;5.30;;
15699;SDS011;7950;42.744;23.174;2022-10-16T04:34:23;5.93;;;5.13;;
15699;SDS011;7950;42.744;23.174;2022-10-16T04:36:52;8.13;;;5.87;;
15699;SDS011;7950;42.744;23.174;2022-10-16T04:39:20;6.30;;;5.20;;
15699;SDS011;7950;42.744;23.174;2022-10-16T04:41:49;8.00;;;5.43;;
15699;SDS011;7950;42.744;23.174;2022-10-16T04:44:18;8.17;;;6.30;;
15699;SDS011;7950;42.744;23.174;2022-10-16T04:46:47;7.40;;;6.30;;
15699;SDS011;7950;42.744;23.174;2022-10-16T04:49:17;7.20;;;6.13;;
15699;SDS011;7950;42.744;23.174;2022-10-16T04:51:47;6.17;;;5.57;;
15699;SDS011;7950;42.744;23.174;2022-10-16T04:54:16;6.27;;;5.30;;
15699;SDS011;7950;42.744;23.174;2022-10-16T04:56:45;7.27;;;5.80;;
15699;SDS011;7950;42.744;23.174;2022-10-16T04:59:16;12.17;;;8.80;;
15699;SDS011;7950;42.744;23.174;2022-10-16T05:01:46;12.93;;;9.17;;
15699;SDS011;7950;42.744;23.174;2022-10-16T05:07:09;11.70;;;8.00;;
15699;SDS011;7950;42.744;23.174;2022-10-16T05:09:41;8.57;;;6.97;;
15699;SDS011;7950;42.744;23.174;2022-10-16T05:12:09;7.60;;;5.87;;
15699;SDS011;7950;42.744;23.174;2022-10-16T05:14:38;8.00;;;5.63;;
15699;SDS011;7950;42.744;23.174;2022-10-16T05:17:07;7.10;;;5.47;;
15699;SDS011;7950;42.744;23.174;2022-10-16T05:19:40;7.17;;;6.20;;
15699;SDS011;7950;42.744;23.174;2022-10-16T05:22:11;6.83;;;5.40;;
15699;SDS011;7950;42.744;23.174;2022-10-16T05:24:39;9.40;;;6.90;;
15699;SDS011;7950;42.744;23.174;2022-10-16T05:27:08;7.57;;;6.27;;
15699;SDS011;7950;42.744;23.174;2022-10-16T05:29:45;8.50;;;6.03;;
15699;SDS011;7950;42.744;23.174;2022-10-16T05:32:14;6.50;;;5.60;;
15699;SDS011;7950;42.744;23.174;2022-10-16T05:34:44;7.50;;;6.30;;
15699;SDS011;7950;42.744;23.174;2022-10-16T05:40:09;9.00;;;6.20;;
15699;SDS011;7950;42.744;23.174;2022-10-16T05:42:39;7.43;;;6.37;;
15699;SDS011;7950;42.744;23.174;2022-10-16T05:45:09;7.10;;;6.37;;
15699;SDS011;7950;42.744;23.174;2022-10-16T05:47:39;7.37;;;6.07;;
15699;SDS011;7950;42.744;23.174;2022-10-16T05:50:08;7.93;;;5.77;;
15699;SDS011;7950;42.744;23.174;2022-10-16T05:52:44;5.40;;;4.90;;
15699;SDS011;7950;42.744;23.174;2022-10-16T05:55:12;8.70;;;5.87;;
15699;SDS011;7950;42.744;23.174;2022-10-16T05:57:50;7.23;;;5.57;;
15699;SDS011;7950;42.744;23.174;2022-10-16T06:00:21;8.63;;;6.87;;
15699;SDS011;7950;42.744;23.174;2022-10-16T06:02:50;8.37;;;6.00;;
15699;SDS011;7950;42.744;23.174;2022-10-16T06:05:18;9.87;;;6.30;;
15699;SDS011;7950;42.744;23.174;2022-10-16T06:07:48;9.83;;;7.07;;
15699;SDS011;7950;42.744;23.174;2022-10-16T06:10:17;9.83;;;7.53;;
15699;SDS011;7950;42.744;23.174;2022-10-16T06:12:45;13.60;;;7.47;;
15699;SDS011;7950;42.744;23.174;2022-10-16T06:15:13;9.43;;;8.23;;
15699;SDS011;7950;42.744;23.174;2022-10-16T06:17:42;9.83;;;7.97;;
15699;SDS011;7950;42.744;23.174;2022-10-16T06:20:10;13.57;;;9.80;;
15699;SDS011;7950;42.744;23.174;2022-10-16T06:22:39;12.60;;;8.93;;
15699;SDS011;7950;42.744;23.174;2022-10-16T06:25:09;11.57;;;8.40;;
15699;SDS011;7950;42.744;23.174;2022-10-16T06:27:39;10.13;;;7.23;;
15699;SDS011;7950;42.744;23.174;2022-10-16T06:30:08;9.47;;;7.10;;
15699;SDS011;7950;42.744;23.174;2022-10-16T06:32:37;10.37;;;6.53;;
15699;SDS011;7950;42.744;23.174;2022-10-16T06:37:59;9.70;;;6.60;;
15699;SDS011;7950;42.744;23.174;2022-10-16T06:40:29;12.03;;;7.23;;
15699;SDS011;7950;42.744;23.174;2022-10-16T06:42:58;9.07;;;6.97;;
15699;SDS011;7950;42.744;23.174;2022-10-16T06:45:27;10.57;;;7.33;;
15699;SDS011;7950;42.744;23.174;2022-10-16T06:47:55;8.97;;;5.97;;
15699;SDS011;7950;42.744;23.174;2022-10-16T06:50:24;7.13;;;6.23;;
15699;SDS011;7950;42.744;23.174;2022-10-16T06:52:52;7.43;;;6.73;;
15699;SDS011;7950;42.744;23.174;2022-10-16T06:55:20;9.33;;;6.40;;
15699;SDS011;7950;42.744;23.174;2022-10-16T06:57:50;12.03;;;6.80;;
15699;SDS011;7950;42.744;23.174;2022-10-16T07:00:19;8.40;;;6.20;;
15699;SDS011;7950;42.744;23.174;2022-10-16T07:02:47;8.93;;;6.53;;
15699;SDS011;7950;42.744;23.174;2022-10-16T07:05:16;9.00;;;7.00;;
15699;SDS011;7950;42.744;23.174;2022-10-16T07:07:44;7.70;;;6.67;;
15699;SDS011;7950;42.744;23.174;2022-10-16T07:10:13;9.23;;;7.17;;
15699;SDS011;7950;42.744;23.174;2022-10-16T07:12:41;8.53;;;6.80;;
15699;SDS011;7950;42.744;23.174;2022-10-16T07:15:13;14.20;;;7.50;;
15699;SDS011;7950;42.744;23.174;2022-10-16T07:17:41;8.10;;;6.70;;
15699;SDS011;7950;42.744;23.174;2022-10-16T07:20:10;7.47;;;6.37;;
15699;SDS011;7950;42.744;23.174;2022-10-16T07:22:38;7.33;;;6.23;;
15699;SDS011;7950;42.744;23.174;2022-10-16T07:25:07;8.07;;;6.50;;
15699;SDS011;7950;42.744;23.174;2022-10-16T07:27:36;9.80;;;6.63;;
15699;SDS011;7950;42.744;23.174;2022-10-16T07:30:06;10.23;;;6.90;;
15699;SDS011;7950;42.744;23.174;2022-10-16T07:32:37;6.90;;;5.77;;
15699;SDS011;7950;42.744;23.174;2022-10-16T07:35:06;9.27;;;6.60;;
15699;SDS011;7950;42.744;23.174;2022-10-16T07:37:35;10.63;;;6.40;;
15699;SDS011;7950;42.744;23.174;2022-10-16T07:40:04;6.00;;;5.40;;
15699;SDS011;7950;42.744;23.174;2022-10-16T07:42:33;7.13;;;5.70;;
15699;SDS011;7950;42.744;23.174;2022-10-16T07:45:01;8.30;;;6.60;;
15699;SDS011;7950;42.744;23.174;2022-10-16T07:47:31;6.20;;;5.47;;
15699;SDS011;7950;42.744;23.174;2022-10-16T07:50:01;7.23;;;6.13;;
15699;SDS011;7950;42.744;23.174;2022-10-16T07:52:29;6.67;;;6.07;;
15699;SDS011;7950;42.744;23.174;2022-10-16T07:54:58;6.60;;;5.67;;
15699;SDS011;7950;42.744;23.174;2022-10-16T07:57:27;7.30;;;5.97;;
15699;SDS011;7950;42.744;23.174;2022-10-16T07:59:55;6.90;;;6.13;;
15699;SDS011;7950;42.744;23.174;2022-10-16T08:02:23;10.97;;;7.27;;
15699;SDS011;7950;42.744;23.174;2022-10-16T08:04:52;6.70;;;6.07;;
15699;SDS011;7950;42.744;23.174;2022-10-16T08:07:22;7.37;;;6.30;;
15699;SDS011;7950;42.744;23.174;2022-10-16T08:09:51;8.60;;;6.67;;
15699;SDS011;7950;42.744;23.174;2022-10-16T08:12:20;8.53;;;5.87;;
15699;SDS011;7950;42.744;23.174;2022-10-16T08:14:48;8.80;;;6.63;;
15699;SDS011;7950;42.744;23.174;2022-10-16T08:17:17;7.40;;;6.50;;
15699;SDS011;7950;42.744;23.174;2022-10-16T08:19:46;6.87;;;6.17;;
15699;SDS011;7950;42.744;23.174;2022-10-16T08:22:14;7.50;;;6.60;;
15699;SDS011;7950;42.744;23.174;2022-10-16T08:24:44;9.27;;;5.43;;
15699;SDS011;7950;42.744;23.174;2022-10-16T08:27:13;7.07;;;5.87;;
15699;SDS011;7950;42.744;23.174;2022-10-16T08:29:41;7.73;;;6.20;;
15699;SDS011;7950;42.744;23.174;2022-10-16T08:32:10;8.50;;;6.10;;
15699;SDS011;7950;42.744;23.174;2022-10-16T08:34:38;6.33;;;5.60;;
15699;SDS011;7950;42.744;23.174;2022-10-16T08:37:07;8.77;;;6.53;;
15699;SDS011;7950;42.744;23.174;2022-10-16T08:39:37;7.70;;;5.90;;
15699;SDS011;7950;42.744;23.174;2022-10-16T08:42:18;8.50;;;6.07;;
15699;SDS011;7950;42.744;23.174;2022-10-16T08:45:02;6.90;;;5.63;;
15699;SDS011;7950;42.744;23.174;2022-10-16T08:48:00;7.07;;;5.73;;
15699;SDS011;7950;42.744;23.174;2022-10-16T08:50:40;7.97;;;6.00;;
15699;SDS011;7950;42.744;23.174;2022-10-16T08:53:12;8.27;;;5.37;;
15699;SDS011;7950;42.744;23.174;2022-10-16T08:55:46;8.90;;;5.60;;
15699;SDS011;7950;42.744;23.174;2022-10-16T08:58:19;7.20;;;6.33;;
15699;SDS011;7950;42.744;23.174;2022-10-16T09:00:51;7.60;;;5.77;;
15699;SDS011;7950;42.744;23.174;2022-10-16T09:03:30;7.80;;;5.50;;
15699;SDS011;7950;42.744;23.174;2022-10-16T09:06:16;6.33;;;5.30;;
15699;SDS011;7950;42.744;23.174;2022-10-16T09:09:01;7.83;;;5.20;;
15699;SDS011;7950;42.744;23.174;2022-10-16T09:11:41;10.13;;;4.90;;
15699;SDS011;7950;42.744;23.174;2022-10-16T09:17:16;8.50;;;5.60;;
15699;SDS011;7950;42.744;23.174;2022-10-16T09:20:03;8.50;;;5.47;;
15699;SDS011;7950;42.744;23.174;2022-10-16T09:23:00;4.53;;;4.10;;
15699;SDS011;7950;42.744;23.174;2022-10-16T09:25:42;8.53;;;7.20;;
15699;SDS011;7950;42.744;23.174;2022-10-16T09:28:14;8.97;;;6.37;;
15699;SDS011;7950;42.744;23.174;2022-10-16T09:30:44;6.63;;;5.70;;
15699;SDS011;7950;42.744;23.174;2022-10-16T09:33:17;4.87;;;3.80;;
15699;SDS011;7950;42.744;23.174;2022-10-16T09:35:49;5.30;;;4.10;;
15699;SDS011;7950;42.744;23.174;2022-10-16T09:38:23;5.17;;;4.67;;
15699;SDS011;7950;42.744;23.174;2022-10-16T09:40:54;7.77;;;4.20;;
15699;SDS011;7950;42.744;23.174;2022-10-16T09:43:31;5.23;;;4.07;;
15699;SDS011;7950;42.744;23.174;2022-10-16T09:46:05;4.57;;;4.00;;
15699;SDS011;7950;42.744;23.174;2022-10-16T09:48:38;6.17;;;3.77;;
15699;SDS011;7950;42.744;23.174;2022-10-16T09:51:16;5.90;;;4.00;;
15699;SDS011;7950;42.744;23.174;2022-10-16T09:53:47;6.00;;;3.60;;
15699;SDS011;7950;42.744;23.174;2022-10-16T09:56:26;5.03;;;3.83;;
15699;SDS011;7950;42.744;23.174;2022-10-16T09:58:58;4.30;;;3.90;;
15699;SDS011;7950;42.744;23.174;2022-10-16T10:01:29;4.20;;;3.27;;
15699;SDS011;7950;42.744;23.174;2022-10-16T10:04:08;5.83;;;3.80;;
15699;SDS011;7950;42.744;23.174;2022-10-16T10:06:40;6.03;;;3.50;;
15699;SDS011;7950;42.744;23.174;2022-10-16T10:09:15;4.13;;;3.63;;
15699;SDS011;7950;42.744;23.174;2022-10-16T10:11:50;4.23;;;3.83;;
15699;SDS011;7950;42.744;23.174;2022-10-16T10:14:28;4.47;;;3.67;;
15699;SDS011;7950;42.744;23.174;2022-10-16T10:17:08;3.97;;;3.57;;
15699;SDS011;7950;42.744;23.174;2022-10-16T10:19:42;4.70;;;3.57;;
15699;SDS011;7950;42.744;23.174;2022-10-16T10:22:22;5.20;;;3.60;;
15699;SDS011;7950;42.744;23.174;2022-10-16T10:25:00;5.10;;;3.83;;
15699;SDS011;7950;42.744;23.174;2022-10-16T10:27:49;10.33;;;3.90;;
15699;SDS011;7950;42.744;23.174;2022-10-16T10:30:35;6.03;;;3.07;;
15699;SDS011;7950;42.744;23.174;2022-10-16T10:33:12;5.50;;;3.60;;
15699;SDS011;7950;42.744;23.174;2022-10-16T10:35:49;5.53;;;3.13;;
15699;SDS011;7950;42.744;23.174;2022-10-16T10:38:30;5.50;;;3.00;;
15699;SDS011;7950;42.744;23.174;2022-10-16T10:44:25;5.47;;;3.57;;
15699;SDS011;7950;42.744;23.174;2022-10-16T10:47:07;7.47;;;3.60;;
15699;SDS011;7950;42.744;23.174;2022-10-16T10:49:46;5.30;;;3.53;;
15699;SDS011;7950;42.744;23.174;2022-10-16T10:52:30;4.50;;;3.13;;
15699;SDS011;7950;42.744;23.174;2022-10-16T10:55:14;5.63;;;3.40;;
15699;SDS011;7950;42.744;23.174;2022-10-16T10:57:52;3.87;;;2.87;;
15699;SDS011;7950;42.744;23.174;2022-10-16T11:03:52;4.07;;;3.50;;
15699;SDS011;7950;42.744;23.174;2022-10-16T11:06:31;4.43;;;3.30;;
15699;SDS011;7950;42.744;23.174;2022-10-16T11:09:07;4.03;;;2.90;;
15699;SDS011;7950;42.744;23.174;2022-10-16T11:11:40;3.97;;;3.27;;
15699;SDS011;7950;42.744;23.174;2022-10-16T11:14:14;3.80;;;3.43;;
15699;SDS011;7950;42.744;23.174;2022-10-16T11:16:48;4.80;;;3.50;;
15699;SDS011;7950;42.744;23.174;2022-10-16T11:19:24;5.17;;;3.30;;
15699;SDS011;7950;42.744;23.174;2022-10-16T11:22:01;3.70;;;3.40;;
15699;SDS011;7950;42.744;23.174;2022-10-16T11:24:37;3.83;;;3.10;;
15699;SDS011;7950;42.744;23.174;2022-10-16T11:27:12;3.53;;;2.87;;
15699;SDS011;7950;42.744;23.174;2022-10-16T11:29:46;4.03;;;3.00;;
15699;SDS011;7950;42.744;23.174;2022-10-16T11:32:21;6.20;;;3.33;;
15699;SDS011;7950;42.744;23.174;2022-10-16T11:34:53;3.17;;;2.87;;
15699;SDS011;7950;42.744;23.174;2022-10-16T11:37:37;3.07;;;2.77;;
15699;SDS011;7950;42.744;23.174;2022-10-16T11:40:15;6.23;;;3.30;;
15699;SDS011;7950;42.744;23.174;2022-10-16T11:42:50;4.30;;;3.57;;
15699;SDS011;7950;42.744;23.174;2022-10-16T11:45:26;5.13;;;3.33;;
15699;SDS011;7950;42.744;23.174;2022-10-16T11:48:04;4.97;;;3.00;;
15699;SDS011;7950;42.744;23.174;2022-10-16T11:50:43;6.87;;;2.90;;
15699;SDS011;7950;42.744;23.174;2022-10-16T11:53:21;3.80;;;3.20;;
15699;SDS011;7950;42.744;23.174;2022-10-16T11:55:57;9.23;;;3.30;;
15699;SDS011;7950;42.744;23.174;2022-10-16T11:58:26;4.80;;;3.23;;
15699;SDS011;7950;42.744;23.174;2022-10-16T12:01:02;3.63;;;3.27;;
15699;SDS011;7950;42.744;23.174;2022-10-16T12:03:42;4.43;;;3.13;;
15699;SDS011;7950;42.744;23.174;2022-10-16T12:06:25;4.30;;;3.30;;
15699;SDS011;7950;42.744;23.174;2022-10-16T12:08:59;5.60;;;3.07;;
15699;SDS011;7950;42.744;23.174;2022-10-16T12:11:34;3.83;;;3.40;;
15699;SDS011;7950;42.744;23.174;2022-10-16T12:14:18;4.37;;;3.00;;
15699;SDS011;7950;42.744;23.174;2022-10-16T12:17:26;4.13;;;3.00;;
15699;SDS011;7950;42.744;23.174;2022-10-16T12:20:18;4.97;;;3.10;;
15699;SDS011;7950;42.744;23.174;2022-10-16T12:22:50;3.53;;;2.90;;
15699;SDS011;7950;42.744;23.174;2022-10-16T12:25:22;4.60;;;3.07;;
15699;SDS011;7950;42.744;23.174;2022-10-16T12:27:56;3.97;;;2.80;;
15699;SDS011;7950;42.744;23.174;2022-10-16T12:30:28;3.80;;;3.07;;
15699;SDS011;7950;42.744;23.174;2022-10-16T12:33:02;3.20;;;2.80;;
15699;SDS011;7950;42.744;23.174;2022-10-16T12:35:33;6.00;;;2.87;;
15699;SDS011;7950;42.744;23.174;2022-10-16T12:38:15;4.57;;;3.10;;
15699;SDS011;7950;42.744;23.174;2022-10-16T12:40:45;3.63;;;3.20;;
15699;SDS011;7950;42.744;23.174;2022-10-16T12:43:28;5.67;;;3.43;;
15699;SDS011;7950;42.744;23.174;2022-10-16T12:46:24;5.23;;;3.20;;
15699;SDS011;7950;42.744;23.174;2022-10-16T12:49:14;3.30;;;3.00;;
15699;SDS011;7950;42.744;23.174;2022-10-16T12:51:53;4.13;;;2.90;;
15699;SDS011;7950;42.744;23.174;2022-10-16T12:54:22;4.27;;;2.70;;
15699;SDS011;7950;42.744;23.174;2022-10-16T12:57:03;6.57;;;3.00;;
15699;SDS011;7950;42.744;23.174;2022-10-16T12:59:43;3.90;;;3.00;;
15699;SDS011;7950;42.744;23.174;2022-10-16T13:02:38;3.00;;;2.70;;
15699;SDS011;7950;42.744;23.174;2022-10-16T13:05:26;3.03;;;2.73;;
15699;SDS011;7950;42.744;23.174;2022-10-16T13:08:11;3.50;;;2.90;;
15699;SDS011;7950;42.744;23.174;2022-10-16T13:10:52;3.37;;;2.63;;
15699;SDS011;7950;42.744;23.174;2022-10-16T13:13:37;4.53;;;2.87;;
15699;SDS011;7950;42.744;23.174;2022-10-16T13:16:21;4.10;;;2.70;;
15699;SDS011;7950;42.744;23.174;2022-10-16T13:18:59;3.93;;;2.70;;
15699;SDS011;7950;42.744;23.174;2022-10-16T13:21:37;3.17;;;2.40;;
15699;SDS011;7950;42.744;23.174;2022-10-16T13:24:16;2.20;;;2.00;;
15699;SDS011;7950;42.744;23.174;2022-10-16T13:26:54;3.03;;;2.10;;
15699;SDS011;7950;42.744;23.174;2022-10-16T13:29:29;2.00;;;1.80;;
15699;SDS011;7950;42.744;23.174;2022-10-16T13:31:59;3.03;;;1.93;;
15699;SDS011;7950;42.744;23.174;2022-10-16T13:34:41;4.50;;;2.07;;
15699;SDS011;7950;42.744;23.174;2022-10-16T13:37:16;4.30;;;2.07;;
15699;SDS011;7950;42.744;23.174;2022-10-16T13:39:46;5.17;;;2.40;;
15699;SDS011;7950;42.744;23.174;2022-10-16T13:42:18;3.07;;;2.10;;
15699;SDS011;7950;42.744;23.174;2022-10-16T13:44:54;2.80;;;2.33;;
15699;SDS011;7950;42.744;23.174;2022-10-16T13:47:25;2.60;;;1.90;;
15699;SDS011;7950;42.744;23.174;2022-10-16T13:49:59;3.77;;;2.00;;
15699;SDS011;7950;42.744;23.174;2022-10-16T13:52:28;2.10;;;2.00;;
15699;SDS011;7950;42.744;23.174;2022-10-16T13:54:57;2.80;;;2.07;;
15699;SDS011;7950;42.744;23.174;2022-10-16T13:57:28;2.23;;;1.87;;
15699;SDS011;7950;42.744;23.174;2022-10-16T13:59:56;3.27;;;2.20;;
15699;SDS011;7950;42.744;23.174;2022-10-16T14:02:26;3.27;;;2.20;;
15699;SDS011;7950;42.744;23.174;2022-10-16T14:05:01;2.40;;;2.20;;
15699;SDS011;7950;42.744;23.174;2022-10-16T14:07:31;2.40;;;2.20;;
15699;SDS011;7950;42.744;23.174;2022-10-16T14:10:02;2.23;;;2.03;;
15699;SDS011;7950;42.744;23.174;2022-10-16T14:12:33;2.87;;;2.00;;
15699;SDS011;7950;42.744;23.174;2022-10-16T14:15:03;4.87;;;2.37;;
15699;SDS011;7950;42.744;23.174;2022-10-16T14:17:34;2.37;;;2.17;;
15699;SDS011;7950;42.744;23.174;2022-10-16T14:20:04;7.53;;;2.50;;
15699;SDS011;7950;42.744;23.174;2022-10-16T14:22:34;5.63;;;2.40;;
15699;SDS011;7950;42.744;23.174;2022-10-16T14:25:15;2.83;;;2.30;;
15699;SDS011;7950;42.744;23.174;2022-10-16T14:30:49;4.47;;;2.00;;
15699;SDS011;7950;42.744;23.174;2022-10-16T14:33:25;2.27;;;2.07;;
15699;SDS011;7950;42.744;23.174;2022-10-16T14:36:02;2.33;;;2.13;;
15699;SDS011;7950;42.744;23.174;2022-10-16T14:38:32;2.50;;;2.30;;
15699;SDS011;7950;42.744;23.174;2022-10-16T14:41:01;3.63;;;2.40;;
15699;SDS011;7950;42.744;23.174;2022-10-16T14:43:32;3.87;;;2.40;;
15699;SDS011;7950;42.744;23.174;2022-10-16T14:46:02;6.03;;;2.30;;
15699;SDS011;7950;42.744;23.174;2022-10-16T14:48:36;3.07;;;2.40;;
15699;SDS011;7950;42.744;23.174;2022-10-16T14:51:08;2.83;;;2.43;;
15699;SDS011;7950;42.744;23.174;2022-10-16T14:53:42;4.00;;;2.40;;
15699;SDS011;7950;42.744;23.174;2022-10-16T14:56:14;2.43;;;2.23;;
15699;SDS011;7950;42.744;23.174;2022-10-16T14:58:45;2.50;;;2.30;;
15699;SDS011;7950;42.744;23.174;2022-10-16T15:01:14;3.90;;;2.67;;
15699;SDS011;7950;42.744;23.174;2022-10-16T15:06:39;3.90;;;2.60;;
15699;SDS011;7950;42.744;23.174;2022-10-16T15:09:08;3.80;;;2.77;;
15699;SDS011;7950;42.744;23.174;2022-10-16T15:11:36;3.00;;;2.70;;
15699;SDS011;7950;42.744;23.174;2022-10-16T15:14:05;3.80;;;2.70;;
15699;SDS011;7950;42.744;23.174;2022-10-16T15:16:34;4.10;;;2.63;;
15699;SDS011;7950;42.744;23.174;2022-10-16T15:19:02;3.93;;;2.70;;
15699;SDS011;7950;42.744;23.174;2022-10-16T15:21:32;5.27;;;3.00;;
15699;SDS011;7950;42.744;23.174;2022-10-16T15:24:00;3.30;;;2.80;;
15699;SDS011;7950;42.744;23.174;2022-10-16T15:26:29;3.27;;;2.90;;
15699;SDS011;7950;42.744;23.174;2022-10-16T15:28:58;4.27;;;2.70;;
15699;SDS011;7950;42.744;23.174;2022-10-16T15:31:26;3.00;;;2.67;;
15699;SDS011;7950;42.744;23.174;2022-10-16T15:34:02;3.43;;;2.70;;
15699;SDS011;7950;42.744;23.174;2022-10-16T15:36:34;7.20;;;2.50;;
15699;SDS011;7950;42.744;23.174;2022-10-16T15:39:04;16.37;;;6.30;;
15699;SDS011;7950;42.744;23.174;2022-10-16T15:41:37;7.83;;;3.20;;
15699;SDS011;7950;42.744;23.174;2022-10-16T15:44:06;12.90;;;3.30;;
15699;SDS011;7950;42.744;23.174;2022-10-16T15:46:34;3.67;;;2.90;;
15699;SDS011;7950;42.744;23.174;2022-10-16T15:49:03;5.70;;;3.23;;